createdAt,value
2022-10-11T00:00:42.607Z,101243.69
2022-10-11T00:03:10.362Z,101241.03
2022-10-11T00:05:37.184Z,101249.06
2022-10-11T00:08:03.601Z,101249.06
2022-10-11T00:10:30.006Z,101246.38
2022-10-11T00:12:56.472Z,101239.31
2022-10-11T00:15:22.834Z,101242.00
2022-10-11T00:17:49.729Z,101248.31
2022-10-11T00:20:17.756Z,101257.72
2022-10-11T00:22:44.424Z,101245.06
2022-10-11T00:25:11.358Z,101247.75
2022-10-11T00:27:38.122Z,101246.91
2022-10-11T00:30:05.373Z,101247.00
2022-10-11T00:32:32.936Z,101242.50
2022-10-11T00:34:59.293Z,101250.53
2022-10-11T00:37:26.949Z,101252.38
2022-10-11T00:39:54.158Z,101251.56
2022-10-11T00:42:20.578Z,101252.38
2022-10-11T00:44:48.581Z,101254.25
2022-10-11T00:47:16.845Z,101253.28
2022-10-11T00:49:45.416Z,101249.00
2022-10-11T00:52:14.865Z,101253.50
2022-10-11T00:54:44.997Z,101255.63
2022-10-11T00:57:13.516Z,101253.06
2022-10-11T00:59:41.670Z,101254.75
2022-10-11T01:02:08.645Z,101254.75
2022-10-11T01:04:35.127Z,101255.63
2022-10-11T01:07:01.631Z,101254.75
2022-10-11T01:09:28.307Z,101260.00
2022-10-11T01:11:58.177Z,101266.31
2022-10-11T01:14:38.959Z,101261.19
2022-10-11T01:17:10.630Z,101256.78
2022-10-11T01:19:51.810Z,101254.13
2022-10-11T01:22:28.698Z,101261.28
2022-10-11T01:25:03.781Z,101253.25
2022-10-11T01:27:36.881Z,101254.13
2022-10-11T01:30:07.398Z,101256.03
2022-10-11T01:32:38.509Z,101258.28
2022-10-11T01:35:08.905Z,101257.38
2022-10-11T01:37:36.968Z,101261.81
2022-10-11T01:40:06.023Z,101268.09
2022-10-11T01:42:32.763Z,101259.22
2022-10-11T01:44:59.597Z,101252.03
2022-10-11T01:47:26.224Z,101259.22
2022-10-11T01:49:54.960Z,101258.34
2022-10-11T01:52:21.393Z,101254.06
2022-10-11T01:55:09.217Z,101269.25
2022-10-11T01:57:44.268Z,101254.94
2022-10-11T02:00:13.944Z,101246.03
2022-10-11T02:02:48.635Z,101251.38
2022-10-11T02:05:20.537Z,101251.50
2022-10-11T02:07:50.992Z,101251.69
2022-10-11T02:10:21.070Z,101262.78
2022-10-11T02:12:51.647Z,101265.47
2022-10-11T02:15:19.061Z,101257.44
2022-10-11T02:17:47.735Z,101252.09
2022-10-11T02:20:17.926Z,101257.34
2022-10-11T02:22:46.456Z,101259.19
2022-10-11T02:25:17.173Z,101264.53
2022-10-11T02:27:45.379Z,101258.41
2022-10-11T02:30:12.311Z,101256.69
2022-10-11T02:32:39.980Z,101248.69
2022-10-11T02:35:06.906Z,101246.84
2022-10-11T02:37:42.733Z,101259.38
2022-10-11T02:40:12.588Z,101250.56
2022-10-11T02:42:41.303Z,101256.78
2022-10-11T02:45:10.957Z,101252.41
2022-10-11T02:47:37.969Z,101256.03
2022-10-11T02:50:05.222Z,101254.72
2022-10-11T02:52:31.556Z,101254.91
2022-10-11T02:54:57.984Z,101254.81
2022-10-11T02:57:25.665Z,101249.47
2022-10-11T02:59:51.997Z,101239.59
2022-10-11T03:02:18.351Z,101245.94
2022-10-11T03:04:44.880Z,101244.97
2022-10-11T03:07:11.210Z,101245.94
2022-10-11T03:09:37.678Z,101258.44
2022-10-11T03:12:04.158Z,101247.75
2022-10-11T03:14:33.739Z,101251.41
2022-10-11T03:17:17.274Z,101245.19
2022-10-11T03:19:46.674Z,101246.97
2022-10-11T03:22:13.212Z,101252.44
2022-10-11T03:24:39.671Z,101250.72
2022-10-11T03:27:06.193Z,101242.72
2022-10-11T03:29:33.836Z,101244.50
2022-10-11T03:32:00.196Z,101242.78
2022-10-11T03:34:26.621Z,101252.63
2022-10-11T03:36:52.949Z,101248.75
2022-10-11T03:39:19.411Z,101249.59
2022-10-11T03:41:45.949Z,101252.16
2022-10-11T03:44:12.366Z,101249.50
2022-10-11T03:46:40.073Z,101246.81
2022-10-11T03:49:06.418Z,101248.63
2022-10-11T03:51:32.726Z,101249.59
2022-10-11T03:53:59.232Z,101245.13
2022-10-11T03:56:25.614Z,101254.00
2022-10-11T03:58:51.972Z,101253.22
2022-10-11T04:01:18.745Z,101250.66
2022-10-11T04:03:46.437Z,101247.97
2022-10-11T04:06:12.805Z,101253.03
2022-10-11T04:08:39.144Z,101250.16
2022-10-11T04:11:05.640Z,101251.88
2022-10-11T04:13:32.247Z,101246.81
2022-10-11T04:15:58.720Z,101252.38
2022-10-11T04:18:25.051Z,101248.19
2022-10-11T04:20:52.708Z,101248.28
2022-10-11T04:23:19.060Z,101250.19
2022-10-11T04:25:45.407Z,101252.97
2022-10-11T04:28:12.042Z,101253.84
2022-10-11T04:30:38.433Z,101247.63
2022-10-11T04:33:04.808Z,101244.56
2022-10-11T04:35:31.131Z,101249.06
2022-10-11T04:37:58.802Z,101251.84
2022-10-11T04:40:25.136Z,101254.50
2022-10-11T04:42:51.465Z,101252.78
2022-10-11T04:45:18.006Z,101253.66
2022-10-11T04:47:44.319Z,101257.19
2022-10-11T04:50:10.731Z,101260.91
2022-10-11T04:52:37.111Z,101249.34
2022-10-11T04:55:05.122Z,101253.75
2022-10-11T04:57:31.656Z,101254.50
2022-10-11T04:59:58.080Z,101250.03
2022-10-11T05:02:24.461Z,101253.06
2022-10-11T05:04:50.853Z,101259.63
2022-10-11T05:07:17.352Z,101257.06
2022-10-11T05:09:43.773Z,101260.97
2022-10-11T05:12:11.525Z,101267.66
2022-10-11T05:14:37.936Z,101270.09
2022-10-11T05:17:04.582Z,101265.88
2022-10-11T05:19:31.110Z,101269.03
2022-10-11T05:21:57.558Z,101265.00
2022-10-11T05:24:23.890Z,101273.88
2022-10-11T05:26:50.701Z,101270.91
2022-10-11T05:29:18.365Z,101275.19
2022-10-11T05:31:44.713Z,101272.84
2022-10-11T05:34:11.106Z,101276.44
2022-10-11T05:36:37.491Z,101275.28
2022-10-11T05:39:03.825Z,101272.41
2022-10-11T05:41:30.217Z,101275.88
2022-10-11T05:43:56.558Z,101272.88
2022-10-11T05:46:24.230Z,101269.16
2022-10-11T05:48:50.812Z,101272.59
2022-10-11T05:51:17.184Z,101279.66
2022-10-11T05:53:43.532Z,101274.97
2022-10-11T05:56:18.299Z,101276.69
2022-10-11T05:58:44.607Z,101277.34
2022-10-11T06:01:15.845Z,101273.69
2022-10-11T06:03:43.532Z,101278.00
2022-10-11T06:06:10.622Z,101283.28
2022-10-11T06:08:37.244Z,101283.03
2022-10-11T06:11:12.061Z,101288.97
2022-10-11T06:13:38.555Z,101293.56
2022-10-11T06:16:05.613Z,101290.78
2022-10-11T06:18:32.093Z,101296.03
2022-10-11T06:21:00.408Z,101303.22
2022-10-11T06:23:27.163Z,101302.84
2022-10-11T06:25:57.017Z,101308.88
2022-10-11T06:28:23.419Z,101317.56
2022-10-11T06:30:49.784Z,101320.03
2022-10-11T06:33:16.198Z,101323.47
2022-10-11T06:35:42.576Z,101320.78
2022-10-11T06:38:10.204Z,101328.81
2022-10-11T06:40:36.610Z,101323.19
2022-10-11T06:43:03.183Z,101332.91
2022-10-11T06:45:29.565Z,101329.28
2022-10-11T06:47:55.896Z,101326.50
2022-10-11T06:50:40.633Z,101322.94
2022-10-11T06:53:10.220Z,101326.28
2022-10-11T06:55:36.587Z,101323.53
2022-10-11T06:58:03.043Z,101319.03
2022-10-11T07:00:30.032Z,101325.53
2022-10-11T07:02:56.453Z,101327.00
2022-10-11T07:05:23.146Z,101319.63
2022-10-11T07:07:49.514Z,101329.06
2022-10-11T07:10:17.192Z,101331.56
2022-10-11T07:12:43.983Z,101336.59
2022-10-11T07:15:10.538Z,101338.41
2022-10-11T07:17:36.923Z,101335.75
2022-10-11T07:20:03.557Z,101344.31
2022-10-11T07:22:30.055Z,101339.19
2022-10-11T07:24:57.018Z,101337.38
2022-10-11T07:27:24.725Z,101342.72
2022-10-11T07:29:51.211Z,101349.03
2022-10-11T07:32:17.601Z,101337.22
2022-10-11T07:34:44.091Z,101345.69
2022-10-11T07:37:10.475Z,101340.69
2022-10-11T07:39:36.920Z,101345.06
2022-10-11T07:42:03.336Z,101353.63
2022-10-11T07:44:31.155Z,101348.06
2022-10-11T07:46:57.536Z,101362.19
2022-10-11T07:49:24.018Z,101359.22
2022-10-11T07:51:50.382Z,101357.22
2022-10-11T07:54:16.702Z,101362.56
2022-10-11T07:56:43.295Z,101365.91
2022-10-11T07:59:10.585Z,101366.63
2022-10-11T08:01:38.328Z,101366.63
2022-10-11T08:04:04.904Z,101365.69
2022-10-11T08:06:31.250Z,101372.78
2022-10-11T08:08:58.430Z,101362.06
2022-10-11T08:11:25.565Z,101372.97
2022-10-11T08:13:52.164Z,101369.41
2022-10-11T08:16:19.002Z,101363.72
2022-10-11T08:18:46.791Z,101369.97
2022-10-11T08:21:14.504Z,101371.03
2022-10-11T08:23:40.873Z,101367.00
2022-10-11T08:26:07.868Z,101371.94
2022-10-11T08:28:34.905Z,101377.19
2022-10-11T08:31:01.614Z,101362.63
2022-10-11T08:33:28.174Z,101366.31
2022-10-11T08:35:55.832Z,101359.78
2022-10-11T08:38:22.247Z,101367.81
2022-10-11T08:40:50.282Z,101367.81
2022-10-11T08:43:27.087Z,101366.00
2022-10-11T08:45:55.899Z,101364.47
2022-10-11T08:48:33.226Z,101368.78
2022-10-11T08:51:01.115Z,101364.94
2022-10-11T08:53:32.200Z,101379.84
2022-10-11T08:55:58.704Z,101361.66
2022-10-11T08:58:30.010Z,101364.13
2022-10-11T09:00:57.607Z,101359.31
2022-10-11T09:03:29.644Z,101362.00
2022-10-11T09:06:02.055Z,101372.06
2022-10-11T09:08:33.162Z,101367.28
2022-10-11T09:11:03.384Z,101362.31
2022-10-11T09:13:39.209Z,101361.00
2022-10-11T09:16:13.077Z,101358.03
2022-10-11T09:18:48.713Z,101363.28
2022-10-11T09:21:19.764Z,101356.75
2022-10-11T09:23:55.003Z,101351.06
2022-10-11T09:26:25.525Z,101357.81
2022-10-11T09:29:01.125Z,101355.03
2022-10-11T09:31:28.245Z,101361.91
2022-10-11T09:33:55.625Z,101361.06
2022-10-11T09:36:25.802Z,101356.22
2022-10-11T09:38:56.299Z,101355.50
2022-10-11T09:41:25.324Z,101354.63
2022-10-11T09:43:52.560Z,101351.84
2022-10-11T09:46:20.925Z,101348.31
2022-10-11T09:48:47.346Z,101353.22
2022-10-11T09:51:15.272Z,101355.81
2022-10-11T09:53:52.625Z,101350.22
2022-10-11T09:56:21.097Z,101349.16
2022-10-11T09:58:47.742Z,101348.81
2022-10-11T10:01:22.535Z,101360.44
2022-10-11T10:04:03.005Z,101354.84
2022-10-11T10:06:29.412Z,101356.38
2022-10-11T10:09:16.246Z,101351.22
2022-10-11T10:11:44.028Z,101353.78
2022-10-11T10:14:18.158Z,101352.06
2022-10-11T10:16:44.601Z,101352.59
2022-10-11T10:19:17.060Z,101353.00
2022-10-11T10:21:45.502Z,101346.47
2022-10-11T10:24:18.452Z,101355.38
2022-10-11T10:27:04.751Z,101345.50
2022-10-11T10:29:31.484Z,101344.66
2022-10-11T10:32:14.961Z,101340.91
2022-10-11T10:34:52.754Z,101347.25
2022-10-11T10:37:22.640Z,101334.03
2022-10-11T10:39:52.607Z,101333.84
2022-10-11T10:42:21.116Z,101329.75
2022-10-11T10:44:50.975Z,101328.06
2022-10-11T10:47:20.976Z,101321.19
2022-10-11T10:49:54.669Z,101326.34
2022-10-11T10:52:32.025Z,101327.06
2022-10-11T10:55:02.492Z,101329.34
2022-10-11T10:57:36.464Z,101327.47
2022-10-11T11:00:06.155Z,101322.09
2022-10-11T11:02:40.783Z,101330.66
2022-10-11T11:05:13.964Z,101325.09
2022-10-11T11:07:43.597Z,101317.31
2022-10-11T11:10:13.122Z,101320.97
2022-10-11T11:12:44.578Z,101319.88
2022-10-11T11:15:14.945Z,101312.69
2022-10-11T11:17:47.625Z,101312.69
2022-10-11T11:20:21.438Z,101312.47
2022-10-11T11:22:52.289Z,101309.69
2022-10-11T11:25:27.212Z,101307.84
2022-10-11T11:28:02.311Z,101306.69
2022-10-11T11:30:34.674Z,101309.69
2022-10-11T11:33:06.332Z,101309.56
2022-10-11T11:35:36.764Z,101305.19
2022-10-11T11:38:06.610Z,101295.19
2022-10-11T11:40:35.167Z,101305.19
2022-10-11T11:43:04.391Z,101301.13
2022-10-11T11:45:33.270Z,101290.50
2022-10-11T11:48:02.471Z,101283.66
2022-10-11T11:50:31.564Z,101297.38
2022-10-11T11:53:02.713Z,101290.81
2022-10-11T11:55:30.982Z,101285.78
2022-10-11T11:58:03.282Z,101286.44
2022-10-11T12:00:38.611Z,101284.31
2022-10-11T12:03:09.423Z,101290.16
2022-10-11T12:05:36.188Z,101284.94
2022-10-11T12:08:04.531Z,101286.97
2022-10-11T12:10:33.938Z,101290.09
2022-10-11T12:13:05.915Z,101285.25
2022-10-11T12:15:33.968Z,101286.44
2022-10-11T12:18:02.960Z,101278.81
2022-10-11T12:20:29.936Z,101278.31
2022-10-11T12:22:57.798Z,101265.88
2022-10-11T12:25:30.643Z,101272.94
2022-10-11T12:27:58.154Z,101267.66
2022-10-11T12:30:39.346Z,101269.50
2022-10-11T12:33:13.651Z,101276.38
2022-10-11T12:35:50.340Z,101271.34
2022-10-11T12:38:20.119Z,101267.88
2022-10-11T12:40:47.396Z,101259.09
2022-10-11T12:43:28.585Z,101256.53
2022-10-11T12:45:54.957Z,101253.72
2022-10-11T12:48:36.020Z,101251.94
2022-10-11T12:51:16.907Z,101254.50
2022-10-11T12:54:14.448Z,101257.16
2022-10-11T12:56:45.600Z,101253.00
2022-10-11T12:59:15.775Z,101245.03
2022-10-11T13:01:47.871Z,101246.88
2022-10-11T13:04:17.004Z,101245.69
2022-10-11T13:06:45.558Z,101238.63
2022-10-11T13:09:17.868Z,101237.97
2022-10-11T13:11:46.396Z,101229.94
2022-10-11T13:14:15.467Z,101233.59
2022-10-11T13:16:45.492Z,101230.78
2022-10-11T13:19:13.573Z,101232.41
2022-10-11T13:21:41.312Z,101230.06
2022-10-11T13:24:11.589Z,101233.69
2022-10-11T13:26:38.236Z,101226.59
2022-10-11T13:29:11.000Z,101220.59
2022-10-11T13:31:39.789Z,101211.16
2022-10-11T13:34:06.218Z,101210.94
2022-10-11T13:36:34.904Z,101220.56
2022-10-11T13:39:02.594Z,101225.09
2022-10-11T13:41:30.278Z,101212.88
2022-10-11T13:43:58.119Z,101222.94
2022-10-11T13:46:25.557Z,101223.16
2022-10-11T13:49:00.003Z,101213.72
2022-10-11T13:51:28.594Z,101209.00
2022-10-11T13:53:56.492Z,101211.16
2022-10-11T13:56:24.404Z,101209.66
2022-10-11T13:58:53.008Z,101212.88
2022-10-11T14:01:20.549Z,101204.06
2022-10-11T14:03:48.864Z,101199.06
2022-10-11T14:06:15.209Z,101207.09
2022-10-11T14:08:44.442Z,101203.22
2022-10-11T14:11:11.887Z,101193.91
2022-10-11T14:13:40.324Z,101197.44
2022-10-11T14:16:07.981Z,101191.94
2022-10-11T14:18:38.516Z,101193.91
2022-10-11T14:21:19.758Z,101188.41
2022-10-11T14:23:46.542Z,101183.16
2022-10-11T14:26:18.360Z,101186.16
2022-10-11T14:28:48.876Z,101185.09
2022-10-11T14:31:15.365Z,101185.09
2022-10-11T14:33:41.695Z,101190.34
2022-10-11T14:36:08.681Z,101194.28
2022-10-11T14:38:35.178Z,101191.66
2022-10-11T14:41:01.553Z,101187.13
2022-10-11T14:43:27.996Z,101183.59
2022-10-11T14:45:55.895Z,101180.16
2022-10-11T14:48:53.610Z,101188.13
2022-10-11T14:51:12.764Z,101182.91
2022-10-11T14:53:40.991Z,101183.31
2022-10-11T14:56:07.837Z,101187.03
2022-10-11T14:58:34.382Z,101182.75
2022-10-11T15:01:02.017Z,101175.50
2022-10-11T15:03:28.346Z,101177.44
2022-10-11T15:05:55.627Z,101174.91
2022-10-11T15:08:21.999Z,101175.75
2022-10-11T15:10:48.332Z,101172.22
2022-10-11T15:13:14.723Z,101168.88
2022-10-11T15:15:41.109Z,101168.16
2022-10-11T15:18:11.400Z,101171.63
2022-10-11T15:20:38.991Z,101175.16
2022-10-11T15:23:06.073Z,101165.97
2022-10-11T15:25:32.431Z,101149.97
2022-10-11T15:27:58.994Z,101142.47
2022-10-11T15:30:26.247Z,101144.78
2022-10-11T15:32:53.255Z,101141.13
2022-10-11T15:35:21.200Z,101142.72
2022-10-11T15:37:47.542Z,101138.44
2022-10-11T15:40:15.690Z,101134.16
2022-10-11T15:42:42.056Z,101128.50
2022-10-11T15:45:09.085Z,101129.13
2022-10-11T15:47:35.684Z,101131.47
2022-10-11T15:50:02.139Z,101125.88
2022-10-11T15:52:29.761Z,101128.56
2022-10-11T15:54:56.097Z,101121.38
2022-10-11T15:57:22.495Z,101121.38
2022-10-11T15:59:48.827Z,101121.72
2022-10-11T16:02:15.158Z,101115.94
2022-10-11T16:04:41.585Z,101106.59
2022-10-11T16:07:07.929Z,101111.63
2022-10-11T16:09:35.656Z,101110.53
2022-10-11T16:12:02.030Z,101111.25
2022-10-11T16:14:28.338Z,101110.41
2022-10-11T16:16:54.795Z,101104.31
2022-10-11T16:19:21.210Z,101111.84
2022-10-11T16:21:47.846Z,101115.72
2022-10-11T16:24:14.187Z,101112.59
2022-10-11T16:26:41.892Z,101103.34
2022-10-11T16:29:08.268Z,101109.56
2022-10-11T16:31:34.622Z,101098.81
2022-10-11T16:34:01.035Z,101102.13
2022-10-11T16:36:27.431Z,101110.00
2022-10-11T16:38:53.891Z,101102.31
2022-10-11T16:41:20.256Z,101110.00
2022-10-11T16:43:51.331Z,101102.59
2022-10-11T16:46:17.704Z,101110.41
2022-10-11T16:48:44.196Z,101109.56
2022-10-11T16:51:10.631Z,101103.22
2022-10-11T16:53:37.184Z,101109.34
2022-10-11T16:56:04.883Z,101110.00
2022-10-11T16:58:31.415Z,101112.06
2022-10-11T17:00:59.071Z,101111.84
2022-10-11T17:03:25.492Z,101111.53
2022-10-11T17:05:51.909Z,101114.06
2022-10-11T17:08:18.262Z,101124.56
2022-10-11T17:10:44.732Z,101129.09
2022-10-11T17:13:11.072Z,101127.34
2022-10-11T17:15:37.500Z,101133.44
2022-10-11T17:18:05.547Z,101126.34
2022-10-11T17:20:32.170Z,101125.16
2022-10-11T17:22:58.546Z,101128.56
2022-10-11T17:25:24.988Z,101132.97
2022-10-11T17:27:51.363Z,101135.41
2022-10-11T17:30:17.752Z,101137.25
2022-10-11T17:32:44.126Z,101137.47
2022-10-11T17:35:11.765Z,101140.09
2022-10-11T17:37:38.107Z,101138.88
2022-10-11T17:40:04.749Z,101143.09
2022-10-11T17:42:31.152Z,101143.81
2022-10-11T17:44:57.502Z,101150.03
2022-10-11T17:47:23.843Z,101155.28
2022-10-11T17:49:50.187Z,101154.31
2022-10-11T17:52:17.946Z,101160.66
2022-10-11T17:54:44.365Z,101158.19
2022-10-11T17:57:10.879Z,101151.56
2022-10-11T17:59:37.221Z,101155.22
2022-10-11T18:02:03.562Z,101161.22
2022-10-11T18:04:29.944Z,101160.34
2022-10-11T18:06:56.313Z,101151.34
2022-10-11T18:09:23.996Z,101157.56
2022-10-11T18:11:50.828Z,101155.75
2022-10-11T18:14:17.385Z,101160.13
2022-10-11T18:16:43.780Z,101158.41
2022-10-11T18:19:11.349Z,101158.13
2022-10-11T18:21:38.193Z,101157.38
2022-10-11T18:24:06.220Z,101152.78
2022-10-11T18:26:33.979Z,101161.56
2022-10-11T18:29:00.424Z,101155.22
2022-10-11T18:31:27.816Z,101149.88
2022-10-11T18:33:54.761Z,101150.59
2022-10-11T18:36:22.115Z,101153.41
2022-10-11T18:38:52.083Z,101157.03
2022-10-11T18:41:19.410Z,101153.00
2022-10-11T18:43:49.850Z,101155.91
2022-10-11T18:46:16.302Z,101157.38
2022-10-11T18:48:43.350Z,101159.09
2022-10-11T18:51:10.331Z,101155.56
2022-10-11T18:53:36.850Z,101160.91
2022-10-11T18:56:05.750Z,101156.41
2022-10-11T18:58:34.017Z,101159.09
2022-10-11T19:01:05.425Z,101165.22
2022-10-11T19:03:35.152Z,101157.38
2022-10-11T19:06:02.277Z,101163.31
2022-10-11T19:08:28.624Z,101157.81
2022-10-11T19:10:54.979Z,101161.13
2022-10-11T19:13:21.324Z,101163.72
2022-10-11T19:15:47.664Z,101159.44
2022-10-11T19:18:20.226Z,101162.00
2022-10-11T19:20:46.858Z,101166.41
2022-10-11T19:23:13.190Z,101157.50
2022-10-11T19:25:39.561Z,101159.31
2022-10-11T19:28:05.994Z,101151.09
2022-10-11T19:30:32.325Z,101153.66
2022-10-11T19:32:58.792Z,101153.31
2022-10-11T19:35:26.420Z,101154.06
2022-10-11T19:37:52.805Z,101155.03
2022-10-11T19:40:19.228Z,101154.19
2022-10-11T19:42:45.581Z,101152.25
2022-10-11T19:45:11.921Z,101154.91
2022-10-11T19:47:38.254Z,101151.50
2022-10-11T19:50:04.882Z,101154.72
2022-10-11T19:52:32.866Z,101148.69
2022-10-11T19:54:59.410Z,101143.78
2022-10-11T19:57:25.758Z,101135.72
2022-10-11T19:59:52.218Z,101136.50
2022-10-11T20:02:18.572Z,101135.50
2022-10-11T20:04:52.524Z,101141.72
2022-10-11T20:07:19.297Z,101141.72
2022-10-11T20:09:46.975Z,101140.03
2022-10-11T20:12:13.290Z,101138.09
2022-10-11T20:14:39.635Z,101143.16
2022-10-11T20:17:06.126Z,101154.06
2022-10-11T20:19:32.485Z,101143.16
2022-10-11T20:21:59.021Z,101145.59
2022-10-11T20:24:25.350Z,101138.41
2022-10-11T20:26:53.014Z,101134.78
2022-10-11T20:29:19.391Z,101140.16
2022-10-11T20:31:45.803Z,101132.97
2022-10-11T20:34:12.118Z,101140.25
2022-10-11T20:36:38.598Z,101144.31
2022-10-11T20:39:05.185Z,101154.41
2022-10-11T20:41:32.173Z,101156.88
2022-10-11T20:44:00.915Z,101155.69
2022-10-11T20:46:28.264Z,101150.34
2022-10-11T20:49:00.409Z,101157.41
2022-10-11T20:51:28.194Z,101158.28
2022-10-11T20:53:54.532Z,101156.47
2022-10-11T20:56:21.717Z,101162.69
2022-10-11T20:58:50.147Z,101152.16
2022-10-11T21:01:18.527Z,101157.22
2022-10-11T21:03:45.126Z,101159.03
2022-10-11T21:06:11.868Z,101148.94
2022-10-11T21:08:39.115Z,101150.66
2022-10-11T21:11:06.108Z,101151.50
2022-10-11T21:13:32.508Z,101149.69
2022-10-11T21:16:02.801Z,101154.06
2022-10-11T21:18:30.460Z,101152.25
2022-10-11T21:20:56.812Z,101154.06
2022-10-11T21:23:23.144Z,101151.00
2022-10-11T21:25:49.477Z,101157.31
2022-10-11T21:28:15.893Z,101157.94
2022-10-11T21:30:42.275Z,101163.31
2022-10-11T21:33:08.609Z,101157.09
2022-10-11T21:35:38.380Z,101154.06
2022-10-11T21:38:04.702Z,101158.56
2022-10-11T21:40:31.136Z,101169.25
2022-10-11T21:42:57.508Z,101162.03
2022-10-11T21:45:23.876Z,101163.50
2022-10-11T21:47:50.206Z,101154.09
2022-10-11T21:50:16.529Z,101161.72
2022-10-11T21:52:44.192Z,101159.69
2022-10-11T21:55:10.554Z,101157.94
2022-10-11T21:57:36.931Z,101157.09
2022-10-11T22:00:04.835Z,101152.56
2022-10-11T22:02:31.167Z,101151.63
2022-10-11T22:04:57.560Z,101147.13
2022-10-11T22:07:23.995Z,101146.56
2022-10-11T22:09:51.681Z,101155.94
2022-10-11T22:12:18.132Z,101154.75
2022-10-11T22:14:44.541Z,101160.84
2022-10-11T22:17:10.854Z,101154.53
2022-10-11T22:19:37.208Z,101151.84
2022-10-11T22:22:03.570Z,101147.44
2022-10-11T22:24:29.913Z,101138.44
2022-10-11T22:26:57.603Z,101142.06
2022-10-11T22:29:23.952Z,101136.94
2022-10-11T22:31:50.294Z,101145.44
2022-10-11T22:34:16.711Z,101134.72
2022-10-11T22:36:43.077Z,101132.66
2022-10-11T22:39:09.485Z,101135.97
2022-10-11T22:41:35.855Z,101132.31
2022-10-11T22:44:04.188Z,101121.72
2022-10-11T22:46:30.540Z,101129.63
2022-10-11T22:48:56.984Z,101125.97
2022-10-11T22:51:23.380Z,101122.78
2022-10-11T22:53:49.718Z,101125.06
2022-10-11T22:56:16.066Z,101124.00
2022-10-11T22:58:42.391Z,101120.19
2022-10-11T23:01:10.744Z,101121.94
2022-10-11T23:03:37.476Z,101120.97
2022-10-11T23:06:04.034Z,101119.25
2022-10-11T23:08:30.451Z,101118.28
2022-10-11T23:10:56.905Z,101117.53
2022-10-11T23:13:23.268Z,101119.97
2022-10-11T23:15:49.697Z,101109.81
2022-10-11T23:18:17.350Z,101111.03
2022-10-11T23:20:44.088Z,101119.56
2022-10-11T23:23:10.480Z,101118.63
2022-10-11T23:25:36.844Z,101107.91
2022-10-11T23:28:03.243Z,101103.25
2022-10-11T23:30:29.947Z,101099.63
2022-10-11T23:32:56.625Z,101107.69
2022-10-11T23:35:24.341Z,101100.59
2022-10-11T23:37:52.670Z,101099.00
2022-10-11T23:40:19.081Z,101102.13
2022-10-11T23:42:45.494Z,101098.59
2022-10-11T23:45:11.872Z,101096.53
2022-10-11T23:47:38.531Z,101097.50
2022-10-11T23:50:05.547Z,101092.75
2022-10-11T23:52:33.201Z,101098.88
2022-10-11T23:54:59.552Z,101099.00
2022-10-11T23:57:25.868Z,101087.31
2022-10-11T23:59:52.193Z,101080.13
